createdAt,value
2023-07-01T00:01:36.740Z,99111.11
2023-07-01T00:04:05.299Z,99112.27
2023-07-01T00:06:33.868Z,99110.45
2023-07-01T00:09:11.701Z,99108.19
2023-07-01T00:11:40.410Z,99109.33
2023-07-01T00:14:17.865Z,99101.09
2023-07-01T00:16:46.537Z,99094.65
2023-07-01T00:19:15.355Z,99096.30
2023-07-01T00:21:43.894Z,99098.35
2023-07-01T00:24:12.351Z,99096.79
2023-07-01T00:26:52.977Z,99098.08
2023-07-01T00:29:21.551Z,99100.02
2023-07-01T00:31:49.895Z,99096.00
2023-07-01T00:34:21.633Z,99095.39
2023-07-01T00:36:50.733Z,99096.52
2023-07-01T00:39:19.010Z,99094.45
2023-07-01T00:41:54.204Z,99092.32
2023-07-01T00:44:23.321Z,99092.20
2023-07-01T00:46:55.352Z,99087.95
2023-07-01T00:49:24.139Z,99083.35
2023-07-01T00:51:52.875Z,99086.49
2023-07-01T00:54:22.266Z,99088.58
2023-07-01T00:57:00.652Z,99091.93
2023-07-01T00:59:38.470Z,99089.14
2023-07-01T01:02:17.356Z,99091.55
2023-07-01T01:05:20.158Z,99096.75
2023-07-01T01:08:00.810Z,99097.93
2023-07-01T01:10:32.668Z,99093.80
2023-07-01T01:13:05.838Z,99091.85
2023-07-01T01:15:55.294Z,99087.40
2023-07-01T01:18:25.255Z,99085.83
2023-07-01T01:20:53.945Z,99085.96
2023-07-01T01:23:33.972Z,99085.63
2023-07-01T01:26:14.438Z,99090.38
2023-07-01T01:28:55.922Z,99092.14
2023-07-01T01:31:24.453Z,99090.18
2023-07-01T01:33:53.197Z,99086.96
2023-07-01T01:36:42.528Z,99087.52
2023-07-01T01:39:15.520Z,99087.00
2023-07-01T01:41:59.351Z,99083.02
2023-07-01T01:44:48.414Z,99084.19
2023-07-01T01:47:28.505Z,99079.25
2023-07-01T01:50:22.688Z,99076.10
2023-07-01T01:53:09.739Z,99076.70
2023-07-01T01:56:03.185Z,99079.79
2023-07-01T01:58:52.302Z,99079.29
2023-07-01T02:01:30.394Z,99073.88
2023-07-01T02:03:59.528Z,99073.02
2023-07-01T02:06:28.638Z,99079.01
2023-07-01T02:08:57.759Z,99079.63
2023-07-01T02:11:26.133Z,99076.59
2023-07-01T02:13:58.225Z,99075.94
2023-07-01T02:16:47.029Z,99072.76
2023-07-01T02:19:16.949Z,99073.55
2023-07-01T02:21:51.071Z,99074.14
2023-07-01T02:24:22.296Z,99074.40
2023-07-01T02:27:14.090Z,99068.82
2023-07-01T02:29:45.833Z,99065.86
2023-07-01T02:32:17.216Z,99064.83
2023-07-01T02:34:48.220Z,99061.10
2023-07-01T02:37:19.153Z,99056.79
2023-07-01T02:39:48.315Z,99058.38
2023-07-01T02:42:20.965Z,99061.88
2023-07-01T02:44:55.946Z,99060.44
2023-07-01T02:47:33.452Z,99056.23
2023-07-01T02:50:02.279Z,99055.17
2023-07-01T02:52:32.037Z,99054.00
2023-07-01T02:55:02.428Z,99050.86
2023-07-01T02:57:30.875Z,99047.85
2023-07-01T03:00:00.316Z,99045.58
2023-07-01T03:02:30.036Z,99053.14
2023-07-01T03:05:01.614Z,99053.25
2023-07-01T03:07:30.043Z,99051.23
2023-07-01T03:09:58.305Z,99050.50
2023-07-01T03:12:27.401Z,99052.60
2023-07-01T03:14:56.318Z,99050.16
2023-07-01T03:17:26.286Z,99050.76
2023-07-01T03:19:54.884Z,99046.91
2023-07-01T03:22:26.365Z,99041.63
2023-07-01T03:24:54.571Z,99042.30
2023-07-01T03:27:23.365Z,99042.25
2023-07-01T03:29:51.767Z,99041.61
2023-07-01T03:32:20.512Z,99038.78
2023-07-01T03:34:49.008Z,99034.19
2023-07-01T03:37:18.030Z,99033.33
2023-07-01T03:39:46.420Z,99035.83
2023-07-01T03:42:14.838Z,99034.27
2023-07-01T03:44:43.598Z,99027.81
2023-07-01T03:47:20.484Z,99026.65
2023-07-01T03:49:49.110Z,99023.36
2023-07-01T03:52:17.633Z,99022.63
2023-07-01T03:54:48.756Z,99014.33
2023-07-01T03:57:17.107Z,99008.79
2023-07-01T03:59:45.818Z,98998.95
2023-07-01T04:02:14.235Z,98996.36
2023-07-01T04:04:43.512Z,98996.98
2023-07-01T04:07:14.975Z,98999.10
2023-07-01T04:09:43.366Z,99000.93
2023-07-01T04:12:12.386Z,99000.14
2023-07-01T04:14:40.827Z,99001.88
2023-07-01T04:17:09.597Z,98999.56
2023-07-01T04:19:38.516Z,99001.96
2023-07-01T04:22:08.631Z,99005.11
2023-07-01T04:24:36.981Z,99006.42
2023-07-01T04:27:05.631Z,99000.31
2023-07-01T04:29:47.216Z,99002.27
2023-07-01T04:32:16.132Z,99001.39
2023-07-01T04:34:46.195Z,99000.39
2023-07-01T04:37:14.599Z,98998.09
2023-07-01T04:39:51.985Z,99000.61
2023-07-01T04:42:23.100Z,99001.35
2023-07-01T04:44:57.200Z,98998.56
2023-07-01T04:47:26.033Z,99000.31
2023-07-01T04:49:57.155Z,99002.74
2023-07-01T04:52:28.970Z,99004.60
2023-07-01T04:54:58.081Z,99006.98
2023-07-01T04:57:26.295Z,99013.45
2023-07-01T05:00:15.550Z,99017.34
2023-07-01T05:02:44.337Z,99018.20
2023-07-01T05:05:16.883Z,99019.79
2023-07-01T05:07:46.442Z,99023.30
2023-07-01T05:10:15.247Z,99022.11
2023-07-01T05:12:52.710Z,99027.26
2023-07-01T05:15:24.580Z,99032.55
2023-07-01T05:17:53.455Z,99032.59
2023-07-01T05:20:22.015Z,99030.45
2023-07-01T05:22:50.253Z,99032.71
2023-07-01T05:25:19.524Z,99031.45
2023-07-01T05:27:47.904Z,99032.45
2023-07-01T05:30:16.499Z,99032.69
2023-07-01T05:32:45.758Z,99032.63
2023-07-01T05:35:16.519Z,99029.64
2023-07-01T05:37:53.079Z,99026.67
2023-07-01T05:40:22.008Z,99024.48
2023-07-01T05:42:54.208Z,99020.66
2023-07-01T05:45:22.747Z,99018.38
2023-07-01T05:47:52.935Z,99016.40
2023-07-01T05:50:24.571Z,99017.45
2023-07-01T05:52:53.595Z,99015.88
2023-07-01T05:55:24.621Z,99012.15
2023-07-01T05:57:55.709Z,99010.05
2023-07-01T06:00:24.084Z,99012.91
2023-07-01T06:02:52.844Z,99014.68
2023-07-01T06:05:24.240Z,99019.61
2023-07-01T06:07:52.606Z,99019.88
2023-07-01T06:10:20.839Z,99018.95
2023-07-01T06:12:49.243Z,99018.15
2023-07-01T06:15:17.605Z,99011.66
2023-07-01T06:17:49.378Z,99002.27
2023-07-01T06:20:18.147Z,99007.81
2023-07-01T06:22:48.272Z,99005.77
2023-07-01T06:25:17.242Z,99008.48
2023-07-01T06:27:45.443Z,99005.84
2023-07-01T06:30:14.025Z,99008.21
2023-07-01T06:32:43.238Z,99008.08
2023-07-01T06:35:13.879Z,99010.07
2023-07-01T06:37:42.363Z,99014.20
2023-07-01T06:40:11.252Z,99010.20
2023-07-01T06:42:40.127Z,99015.43
2023-07-01T06:45:08.958Z,99014.62
2023-07-01T06:47:37.308Z,99012.87
2023-07-01T06:50:06.238Z,99011.06
2023-07-01T06:52:34.509Z,99008.21
2023-07-01T06:55:04.301Z,99005.94
2023-07-01T06:57:32.710Z,99002.99
2023-07-01T07:00:02.315Z,99000.73
2023-07-01T07:02:30.585Z,99002.90
2023-07-01T07:04:59.125Z,99002.36
2023-07-01T07:07:27.861Z,98995.73
2023-07-01T07:09:56.123Z,98995.38
2023-07-01T07:12:24.378Z,98993.87
2023-07-01T07:14:53.280Z,98994.89
2023-07-01T07:17:21.659Z,98997.20
2023-07-01T07:19:49.960Z,98995.66
2023-07-01T07:22:18.879Z,98992.27
2023-07-01T07:24:47.132Z,98991.19
2023-07-01T07:27:15.526Z,98993.21
2023-07-01T07:29:44.137Z,98987.34
2023-07-01T07:32:12.511Z,98987.43
2023-07-01T07:34:40.969Z,98982.39
2023-07-01T07:37:09.733Z,98979.14
2023-07-01T07:39:38.368Z,98974.73
2023-07-01T07:42:06.922Z,98975.17
2023-07-01T07:44:36.514Z,98978.25
2023-07-01T07:47:05.379Z,98973.76
2023-07-01T07:49:34.023Z,98973.55
2023-07-01T07:52:02.870Z,98972.33
2023-07-01T07:54:41.748Z,98968.58
2023-07-01T07:57:09.964Z,98964.33
2023-07-01T07:59:38.614Z,98963.63
2023-07-01T08:02:07.278Z,98959.20
2023-07-01T08:04:39.712Z,98964.17
2023-07-01T08:07:09.299Z,98965.84
2023-07-01T08:09:38.878Z,98959.74
2023-07-01T08:12:08.031Z,98959.58
2023-07-01T08:14:36.376Z,98960.52
2023-07-01T08:17:05.261Z,98957.90
2023-07-01T08:19:34.932Z,98954.52
2023-07-01T08:22:03.681Z,98951.86
2023-07-01T08:24:31.995Z,98953.91
2023-07-01T08:27:01.090Z,98952.17
2023-07-01T08:30:26.390Z,98950.82
2023-07-01T08:32:56.174Z,98950.79
2023-07-01T08:35:24.635Z,98950.40
2023-07-01T08:37:53.126Z,98948.44
2023-07-01T08:40:21.596Z,98948.20
2023-07-01T08:42:52.575Z,98951.62
2023-07-01T08:45:23.339Z,98949.36
2023-07-01T08:47:54.876Z,98945.89
2023-07-01T08:50:24.391Z,98941.63
2023-07-01T08:53:04.497Z,98936.52
2023-07-01T08:55:33.957Z,98935.73
2023-07-01T08:58:04.049Z,98926.79
2023-07-01T09:00:33.054Z,98930.70
2023-07-01T09:03:04.446Z,98931.00
2023-07-01T09:05:33.416Z,98929.55
2023-07-01T09:08:01.679Z,98931.28
2023-07-01T09:10:30.376Z,98929.53
2023-07-01T09:13:14.340Z,98925.07
2023-07-01T09:16:06.473Z,98927.35
2023-07-01T09:18:36.188Z,98921.91
2023-07-01T09:21:19.706Z,98917.54
2023-07-01T09:23:49.011Z,98910.98
2023-07-01T09:26:21.284Z,98917.63
2023-07-01T09:28:53.608Z,98915.98
2023-07-01T09:31:22.505Z,98921.65
2023-07-01T09:34:01.509Z,98915.64
2023-07-01T09:36:41.706Z,98911.67
2023-07-01T09:39:10.306Z,98911.34
2023-07-01T09:41:39.101Z,98910.38
2023-07-01T09:44:20.373Z,98914.85
2023-07-01T09:46:50.616Z,98913.46
2023-07-01T09:49:22.701Z,98910.16
2023-07-01T09:51:53.033Z,98904.15
2023-07-01T09:54:27.938Z,98901.77
2023-07-01T09:56:59.375Z,98903.20
2023-07-01T09:59:28.970Z,98894.95
2023-07-01T10:01:59.103Z,98889.64
2023-07-01T10:04:30.856Z,98887.52
2023-07-01T10:07:00.356Z,98887.15
2023-07-01T10:09:30.495Z,98889.17
2023-07-01T10:12:00.784Z,98886.16
2023-07-01T10:14:33.769Z,98883.86
2023-07-01T10:17:02.840Z,98881.03
2023-07-01T10:19:36.457Z,98879.16
2023-07-01T10:22:29.126Z,98874.75
2023-07-01T10:25:08.406Z,98875.13
2023-07-01T10:27:45.616Z,98867.61
2023-07-01T10:30:15.270Z,98867.02
2023-07-01T10:32:45.055Z,98867.27
2023-07-01T10:35:17.593Z,98870.43
2023-07-01T10:38:28.601Z,98867.21
2023-07-01T10:40:57.528Z,98862.63
2023-07-01T10:43:32.299Z,98853.35
2023-07-01T10:46:25.873Z,98847.16
2023-07-01T10:49:03.779Z,98843.30
2023-07-01T10:51:47.637Z,98843.07
2023-07-01T10:54:30.679Z,98840.88
2023-07-01T10:57:17.458Z,98830.80
2023-07-01T10:59:46.294Z,98835.20
2023-07-01T11:02:39.310Z,98829.23
2023-07-01T11:05:10.130Z,98824.36
2023-07-01T11:07:43.088Z,98815.01
2023-07-01T11:10:11.802Z,98815.12
2023-07-01T11:12:40.822Z,98815.97
2023-07-01T11:15:09.836Z,98812.45
2023-07-01T11:17:52.556Z,98813.77
2023-07-01T11:20:20.930Z,98814.34
2023-07-01T11:22:50.811Z,98809.79
2023-07-01T11:25:19.160Z,98810.95
2023-07-01T11:27:47.469Z,98812.91
2023-07-01T11:30:32.005Z,98812.08
2023-07-01T11:33:13.995Z,98807.50
2023-07-01T11:35:53.230Z,98810.91
2023-07-01T11:38:27.864Z,98806.61
2023-07-01T11:40:56.717Z,98804.98
2023-07-01T11:43:25.485Z,98797.48
2023-07-01T11:45:55.551Z,98802.45
2023-07-01T11:48:32.361Z,98805.80
2023-07-01T11:51:00.910Z,98800.40
2023-07-01T11:53:39.045Z,98798.56
2023-07-01T11:56:17.961Z,98800.72
2023-07-01T12:01:42.463Z,98796.15
2023-07-01T12:04:31.426Z,98792.23
2023-07-01T12:07:08.087Z,98783.61
2023-07-01T12:09:37.571Z,98782.52
2023-07-01T12:12:06.477Z,98786.20
2023-07-01T12:14:35.214Z,98789.54
2023-07-01T12:17:03.630Z,98783.30
2023-07-01T12:19:32.395Z,98779.67
2023-07-01T12:22:01.533Z,98772.31
2023-07-01T12:24:34.082Z,98775.25
2023-07-01T12:27:04.882Z,98771.70
2023-07-01T12:29:33.282Z,98769.73
2023-07-01T12:32:02.134Z,98772.19
2023-07-01T12:34:30.407Z,98774.95
2023-07-01T12:36:59.531Z,98764.97
2023-07-01T12:39:28.574Z,98759.25
2023-07-01T12:41:59.769Z,98762.41
2023-07-01T12:44:37.279Z,98759.11
2023-07-01T12:47:07.617Z,98754.48
2023-07-01T12:49:38.609Z,98754.77
2023-07-01T12:52:06.914Z,98761.58
2023-07-01T12:54:35.347Z,98754.02
2023-07-01T12:57:04.551Z,98751.04
2023-07-01T12:59:32.950Z,98746.30
2023-07-01T13:02:01.248Z,98749.12
2023-07-01T13:04:30.712Z,98740.64
2023-07-01T13:06:59.109Z,98741.25
2023-07-01T13:09:42.702Z,98739.32
2023-07-01T13:12:14.378Z,98739.36
2023-07-01T13:14:42.734Z,98736.02
2023-07-01T13:17:11.413Z,98735.68
2023-07-01T13:19:39.897Z,98730.45
2023-07-01T13:22:09.622Z,98727.05
2023-07-01T13:24:42.632Z,98724.70
2023-07-01T13:27:16.004Z,98723.48
2023-07-01T13:29:47.392Z,98721.50
2023-07-01T13:32:16.036Z,98717.55
2023-07-01T13:34:47.144Z,98711.39
2023-07-01T13:37:21.891Z,98712.42
2023-07-01T13:39:52.003Z,98714.13
2023-07-01T13:42:26.544Z,98710.21
2023-07-01T13:44:57.473Z,98708.17
2023-07-01T13:47:30.105Z,98710.15
2023-07-01T13:49:58.584Z,98709.60
2023-07-01T13:52:27.200Z,98704.80
2023-07-01T13:54:55.813Z,98700.23
2023-07-01T13:57:30.133Z,98695.27
2023-07-01T14:00:01.842Z,98699.27
2023-07-01T14:02:41.179Z,98693.85
2023-07-01T14:05:17.145Z,98696.19
2023-07-01T14:07:45.857Z,98697.84
2023-07-01T14:10:30.484Z,98689.73
2023-07-01T14:12:59.902Z,98682.27
2023-07-01T14:15:37.044Z,98684.95
2023-07-01T14:18:14.861Z,98679.40
2023-07-01T14:20:56.976Z,98677.88
2023-07-01T14:23:33.580Z,98685.91
2023-07-01T14:26:04.163Z,98686.69
2023-07-01T14:28:33.203Z,98681.48
2023-07-01T14:31:12.847Z,98678.06
2023-07-01T14:33:51.931Z,98678.84
2023-07-01T14:36:27.601Z,98677.19
2023-07-01T14:38:56.880Z,98677.52
2023-07-01T14:41:27.722Z,98669.55
2023-07-01T14:44:01.927Z,98667.21
2023-07-01T14:46:35.407Z,98667.71
2023-07-01T14:49:07.510Z,98665.21
2023-07-01T14:51:40.012Z,98664.64
2023-07-01T14:54:08.497Z,98667.77
2023-07-01T14:56:37.046Z,98664.80
2023-07-01T14:59:05.295Z,98658.55
2023-07-01T15:01:33.749Z,98662.86
2023-07-01T15:04:03.043Z,98661.75
2023-07-01T15:06:31.516Z,98655.98
2023-07-01T15:08:59.944Z,98658.52
2023-07-01T15:11:28.875Z,98657.17
2023-07-01T15:13:57.964Z,98657.23
2023-07-01T15:16:27.546Z,98651.70
2023-07-01T15:18:55.780Z,98653.04
2023-07-01T15:21:24.660Z,98645.00
2023-07-01T15:24:06.409Z,98643.56
2023-07-01T15:26:34.805Z,98638.89
2023-07-01T15:29:03.414Z,98635.08
2023-07-01T15:31:31.744Z,98632.63
2023-07-01T15:34:00.078Z,98631.81
2023-07-01T15:36:28.898Z,98630.95
2023-07-01T15:38:57.337Z,98629.31
2023-07-01T15:41:41.548Z,98628.27
2023-07-01T15:44:14.640Z,98624.05
2023-07-01T15:46:43.222Z,98619.27
2023-07-01T15:49:11.629Z,98623.26
2023-07-01T15:51:41.659Z,98622.38
2023-07-01T15:54:12.588Z,98622.63
2023-07-01T15:56:41.301Z,98617.55
2023-07-01T15:59:10.898Z,98616.69
2023-07-01T16:01:39.893Z,98616.06
2023-07-01T16:04:11.316Z,98617.95
2023-07-01T16:06:39.821Z,98615.36
2023-07-01T16:09:43.235Z,98615.55
2023-07-01T16:12:33.463Z,98614.62
2023-07-01T16:15:09.111Z,98614.77
2023-07-01T16:17:44.177Z,98609.17
2023-07-01T16:20:32.924Z,98609.52
2023-07-01T16:23:11.758Z,98608.95
2023-07-01T16:25:40.882Z,98609.79
2023-07-01T16:28:09.506Z,98608.61
2023-07-01T16:30:41.396Z,98608.88
2023-07-01T16:33:22.457Z,98607.48
2023-07-01T16:35:53.540Z,98605.71
2023-07-01T16:38:30.629Z,98604.60
2023-07-01T16:40:59.576Z,98602.11
2023-07-01T16:43:41.227Z,98604.71
2023-07-01T16:46:13.657Z,98604.59
2023-07-01T16:48:53.377Z,98601.27
2023-07-01T16:51:22.403Z,98599.50
2023-07-01T16:54:18.392Z,98596.83
2023-07-01T16:56:57.683Z,98596.17
2023-07-01T16:59:47.196Z,98595.46
2023-07-01T17:02:32.094Z,98596.04
2023-07-01T17:05:22.993Z,98594.06
2023-07-01T17:07:51.345Z,98594.73
2023-07-01T17:10:38.599Z,98590.04
2023-07-01T17:13:20.509Z,98592.85
2023-07-01T17:15:53.597Z,98589.83
2023-07-01T17:18:27.529Z,98588.73
2023-07-01T17:20:57.228Z,98587.81
2023-07-01T17:23:26.242Z,98586.05
2023-07-01T17:25:55.622Z,98589.27
2023-07-01T17:28:23.860Z,98588.52
2023-07-01T17:30:52.688Z,98585.87
2023-07-01T17:33:21.216Z,98583.23
2023-07-01T17:35:49.980Z,98584.89
2023-07-01T17:38:18.661Z,98586.73
2023-07-01T17:40:46.944Z,98585.33
2023-07-01T17:43:15.748Z,98584.96
2023-07-01T17:45:44.051Z,98584.39
2023-07-01T17:48:12.786Z,98579.49
2023-07-01T17:50:41.437Z,98577.79
2023-07-01T17:53:09.820Z,98582.44
2023-07-01T17:55:38.244Z,98578.87
2023-07-01T17:58:08.022Z,98576.20
2023-07-01T18:00:36.720Z,98574.73
2023-07-01T18:03:05.434Z,98578.61
2023-07-01T18:05:37.167Z,98576.63
2023-07-01T18:08:32.197Z,98572.73
2023-07-01T18:11:00.456Z,98573.41
2023-07-01T18:13:32.552Z,98573.19
2023-07-01T18:16:04.423Z,98569.84
2023-07-01T18:18:55.963Z,98567.81
2023-07-01T18:21:46.213Z,98566.36
2023-07-01T18:24:19.008Z,98565.71
2023-07-01T18:26:49.704Z,98564.48
2023-07-01T18:29:21.089Z,98567.36
2023-07-01T18:31:49.428Z,98565.63
2023-07-01T18:34:17.645Z,98566.61
2023-07-01T18:36:46.288Z,98563.27
2023-07-01T18:39:15.185Z,98563.33
2023-07-01T18:41:43.688Z,98564.10
2023-07-01T18:44:12.072Z,98563.23
2023-07-01T18:46:40.996Z,98563.31
2023-07-01T18:49:09.433Z,98565.99
2023-07-01T18:51:37.712Z,98562.86
2023-07-01T18:54:06.037Z,98560.70
2023-07-01T18:56:36.234Z,98557.97
2023-07-01T18:59:07.261Z,98555.70
2023-07-01T19:01:36.518Z,98556.16
2023-07-01T19:04:05.249Z,98551.97
2023-07-01T19:06:34.062Z,98548.45
2023-07-01T19:09:02.401Z,98548.65
2023-07-01T19:11:30.848Z,98550.61
2023-07-01T19:13:59.329Z,98553.70
2023-07-01T19:16:31.091Z,98555.66
2023-07-01T19:19:00.194Z,98555.13
2023-07-01T19:21:28.651Z,98556.04
2023-07-01T19:23:57.359Z,98554.45
2023-07-01T19:26:27.445Z,98551.73
2023-07-01T19:28:55.816Z,98556.08
2023-07-01T19:31:24.726Z,98556.81
2023-07-01T19:33:53.117Z,98561.02
2023-07-01T19:36:21.626Z,98560.69
2023-07-01T19:38:51.821Z,98558.90
2023-07-01T19:41:20.449Z,98560.53
2023-07-01T19:43:52.180Z,98561.60
2023-07-01T19:46:20.824Z,98559.52
2023-07-01T19:48:51.704Z,98561.10
2023-07-01T19:51:20.590Z,98562.77
2023-07-01T19:53:49.688Z,98561.77
2023-07-01T19:56:18.171Z,98560.71
2023-07-01T19:58:46.601Z,98560.45
2023-07-01T20:01:14.904Z,98561.86
2023-07-01T20:03:43.389Z,98562.54
2023-07-01T20:06:12.035Z,98562.20
2023-07-01T20:08:43.310Z,98563.08
2023-07-01T20:11:11.728Z,98564.21
2023-07-01T20:13:40.176Z,98564.65
2023-07-01T20:16:08.805Z,98566.18
2023-07-01T20:18:37.575Z,98570.59
2023-07-01T20:21:05.830Z,98566.02
2023-07-01T20:23:36.705Z,98567.55
2023-07-01T20:26:07.834Z,98563.77
2023-07-01T20:28:38.758Z,98564.72
2023-07-01T20:31:10.130Z,98564.88
2023-07-01T20:33:41.338Z,98566.62
2023-07-01T20:36:09.895Z,98565.58
2023-07-01T20:38:38.330Z,98566.59
2023-07-01T20:41:06.928Z,98572.53
2023-07-01T20:43:35.971Z,98573.20
2023-07-01T20:46:04.240Z,98573.59
2023-07-01T20:48:33.010Z,98578.06
2023-07-01T20:51:03.826Z,98580.04
2023-07-01T20:53:32.681Z,98584.79
2023-07-01T20:56:01.589Z,98586.48
2023-07-01T20:58:30.031Z,98586.54
2023-07-01T21:00:58.400Z,98586.81
2023-07-01T21:03:26.856Z,98588.48
2023-07-01T21:06:04.741Z,98589.08
2023-07-01T21:08:33.702Z,98589.97
2023-07-01T21:11:02.637Z,98592.27
2023-07-01T21:13:31.456Z,98593.17
2023-07-01T21:16:00.160Z,98598.51
2023-07-01T21:18:31.707Z,98604.02
2023-07-01T21:21:02.736Z,98606.04
2023-07-01T21:23:33.773Z,98609.03
2023-07-01T21:26:04.491Z,98600.68
2023-07-01T21:28:38.880Z,98592.15
2023-07-01T21:31:10.324Z,98592.78
2023-07-01T21:33:39.362Z,98599.84
2023-07-01T21:36:08.296Z,98597.61
2023-07-01T21:38:36.642Z,98598.27
2023-07-01T21:41:05.116Z,98598.15
2023-07-01T21:43:35.588Z,98598.39
2023-07-01T21:46:07.484Z,98598.04
2023-07-01T21:48:37.919Z,98599.27
2023-07-01T21:51:11.167Z,98594.05
2023-07-01T21:53:45.423Z,98592.05
2023-07-01T21:56:15.817Z,98591.42
2023-07-01T21:58:47.252Z,98596.54
2023-07-01T22:01:37.596Z,98596.95
2023-07-01T22:04:07.812Z,98599.47
2023-07-01T22:06:49.098Z,98596.38
2023-07-01T22:09:18.300Z,98592.83
2023-07-01T22:11:46.798Z,98597.66
2023-07-01T22:14:18.253Z,98596.27
2023-07-01T22:17:09.766Z,98598.95
2023-07-01T22:20:01.388Z,98600.89
2023-07-01T22:22:33.516Z,98602.59
2023-07-01T22:25:01.975Z,98605.48
2023-07-01T22:27:30.553Z,98604.77
2023-07-01T22:29:58.937Z,98609.06
2023-07-01T22:32:27.964Z,98610.33
2023-07-01T22:34:56.570Z,98613.34
2023-07-01T22:37:35.383Z,98612.38
2023-07-01T22:40:03.784Z,98615.36
2023-07-01T22:42:32.459Z,98613.39
2023-07-01T22:45:04.504Z,98611.10
2023-07-01T22:47:33.454Z,98613.20
2023-07-01T22:50:22.707Z,98609.77
2023-07-01T22:52:52.366Z,98612.69
2023-07-01T22:55:22.181Z,98613.05
2023-07-01T22:58:14.332Z,98608.94
2023-07-01T23:00:44.738Z,98607.54
2023-07-01T23:03:28.423Z,98608.17
2023-07-01T23:05:57.399Z,98607.28
2023-07-01T23:08:46.699Z,98607.98
2023-07-01T23:11:15.596Z,98609.69
2023-07-01T23:13:44.573Z,98609.04
2023-07-01T23:16:13.342Z,98607.33
2023-07-01T23:18:42.038Z,98607.98
2023-07-01T23:21:10.358Z,98612.20
2023-07-01T23:23:39.019Z,98614.37
2023-07-01T23:26:07.729Z,98615.36
2023-07-01T23:28:36.195Z,98614.70
2023-07-01T23:31:05.140Z,98613.92
2023-07-01T23:33:43.323Z,98610.75
2023-07-01T23:36:13.922Z,98608.77
2023-07-01T23:38:42.306Z,98605.13
2023-07-01T23:41:13.896Z,98600.40
2023-07-01T23:43:42.133Z,98597.86
2023-07-01T23:46:12.947Z,98596.58
2023-07-01T23:48:43.320Z,98596.45
2023-07-01T23:51:12.822Z,98594.66
2023-07-01T23:53:41.262Z,98592.67
2023-07-01T23:56:13.135Z,98594.23
2023-07-01T23:58:41.540Z,98598.09
